Terminal Aerodrome Forecast
Issued by NWS Twin Cities, MN

Home | Current Version | Previous Version | Graphics & Text | Print | Product List | Glossary On
Versions: 1 2 3 4 5 6 7 8 9 10 11 12 13 14 15 16 17 18 19 20 21 22 23 24 25 26 27 28
000
FTUS43 KMPX 181100
TAFMSP
TAF
KMSP 181120Z 1812/1918 10002KT 6SM BR SCT100 BKN250
     FM181300 10007KT P6SM SCT040 OVC070
     FM181800 11012G18KT P6SM SCT100 BKN200
     FM182300 13013G21KT P6SM SCT090 BKN150
     FM190900 14013G23KT P6SM SCT050 BKN100
     FM191500 16015G25KT P6SM BKN050 BKN100=

USA.gov is the U.S. government's official web portal to all federal, state and local government web resources and services.